Time;durP1;ratioP1;P1;durP2;ratioP2;P2;SDS_P1;SDS_P2;PMS_P1;PMS_P2;Temp;Humidity;BMP_temperature;BMP_pressure;BME280_temperature;BME280_humidity;BME280_pressure;Samples;Min_cycle;Max_cycle;Signal;HPM_P1;HPM_P2
2022/01/14 00:01:41;;;;;;;56.30;28.60;;;102.90;1817.60;;;;;;5010845;28;20112;-64
2022/01/14 00:04:07;;;;;;;54.88;27.25;;;102.90;1817.60;;;;;;5013275;28;20113;-63
2022/01/14 00:06:33;;;;;;;55.17;28.30;;;102.80;1817.60;;;;;;5012445;28;20045;-60
2022/01/14 00:09:06;;;;;;;49.00;26.55;;;102.90;1817.60;;;;;;5013454;28;20037;-60
2022/01/14 00:11:33;;;;;;;47.47;26.35;;;102.90;1843.20;;;;;;5014012;28;20022;-61
2022/01/14 00:16:31;;;;;;;51.75;27.10;;;102.90;1817.60;;;;;;5014357;28;20479;-61
2022/01/14 00:19:00;;;;;;;48.60;25.83;;;103.00;1817.60;;;;;;5013852;28;20037;-60
2022/01/14 00:21:27;;;;;;;48.47;26.40;;;103.00;1817.60;;;;;;5013799;28;20080;-69
2022/01/14 00:24:04;;;;;;;45.88;26.60;;;103.00;1817.60;;;;;;5013891;28;20053;-60
2022/01/14 00:32:06;;;;;;;48.08;26.10;;;103.10;1868.80;;;;;;5014082;28;20076;-69
2022/01/14 00:34:32;;;;;;;49.65;27.15;;;103.20;1868.80;;;;;;5013872;28;20064;-68
2022/01/14 00:37:00;;;;;;;50.78;27.25;;;103.10;1843.20;;;;;;5013721;28;20422;-67
2022/01/14 00:39:26;;;;;;;48.00;26.95;;;103.20;1843.20;;;;;;5013496;28;20092;-68
2022/01/14 00:41:52;;;;;;;48.50;25.65;;;103.30;1817.60;;;;;;5013212;28;20502;-68
2022/01/14 00:44:19;;;;;;;49.70;27.38;;;103.20;1843.20;;;;;;5013492;28;20084;-66
2022/01/14 00:46:46;;;;;;;54.50;27.52;;;103.20;1817.60;;;;;;5014133;28;20348;-64
2022/01/14 00:49:13;;;;;;;49.55;26.45;;;103.30;1817.60;;;;;;5013620;28;20014;-69
2022/01/14 00:51:38;;;;;;;52.83;27.67;;;103.30;1792.00;;;;;;5013076;28;20112;-68
2022/01/14 00:54:05;;;;;;;45.63;26.02;;;128.00;1817.60;;;;;;5013502;28;20022;-68
2022/01/14 00:59:16;;;;;;;51.20;27.40;;;128.10;1792.00;;;;;;5013610;28;20048;-64
2022/01/14 01:01:48;;;;;;;48.60;24.60;;;128.00;1817.60;;;;;;5013728;28;20029;-69
2022/01/14 01:04:16;;;;;;;48.42;26.35;;;128.10;1817.60;;;;;;5013461;28;20041;-69
2022/01/14 01:06:42;;;;;;;45.40;25.40;;;128.20;1817.60;;;;;;5013112;28;20049;-69
2022/01/14 01:09:12;;;;;;;46.50;26.50;;;128.20;1817.60;;;;;;5013291;28;20065;-71
2022/01/14 01:12:05;;;;;;;45.30;25.05;;;128.20;1766.40;;;;;;5012987;28;20030;-69
2022/01/14 01:14:41;;;;;;;48.53;25.83;;;128.20;1817.60;;;;;;5014276;28;20033;-69
2022/01/14 01:17:07;;;;;;;48.15;25.13;;;128.20;1817.60;;;;;;5017034;28;20026;-70
2022/01/14 01:19:33;;;;;;;44.92;24.50;;;128.20;1766.40;;;;;;5016711;28;20037;-69
2022/01/14 01:22:00;;;;;;;51.42;26.92;;;128.20;1817.60;;;;;;5016178;28;20026;-68
2022/01/14 01:24:25;;;;;;;51.75;27.08;;;128.20;1766.40;;;;;;5016843;28;20026;-67
2022/01/14 01:26:52;;;;;;;58.88;27.40;;;128.10;1792.00;;;;;;5016698;28;20052;-68
2022/01/14 01:32:05;;;;;;;52.58;27.10;;;128.10;1766.40;;;;;;4994982;28;20132;-66
2022/01/14 01:34:31;;;;;;;53.20;26.85;;;128.00;1817.60;;;;;;4994626;28;20034;-66
2022/01/14 01:36:58;;;;;;;48.75;25.42;;;128.00;1843.20;;;;;;4994707;28;20038;-71
2022/01/14 01:39:27;;;;;;;43.95;25.02;;;128.10;1792.00;;;;;;4994431;28;20523;-60
2022/01/14 01:41:55;;;;;;;51.00;26.20;;;128.20;1817.60;;;;;;4995084;28;20039;-65
2022/01/14 01:44:24;;;;;;;48.22;26.23;;;128.20;1817.60;;;;;;4994519;28;20042;-66
2022/01/14 01:46:51;;;;;;;47.42;26.33;;;128.20;1766.40;;;;;;4994633;28;20044;-61
2022/01/14 01:49:23;;;;;;;48.38;25.27;;;128.10;1817.60;;;;;;4994607;28;20109;-67
2022/01/14 01:51:50;;;;;;;51.35;26.00;;;128.10;1792.00;;;;;;4994426;28;20069;-68
2022/01/14 01:54:19;;;;;;;45.72;24.42;;;128.20;1792.00;;;;;;4994542;28;20030;-66
2022/01/14 01:56:45;;;;;;;48.67;27.38;;;128.20;1817.60;;;;;;4994750;28;20026;-66
2022/01/14 01:59:12;;;;;;;47.28;26.27;;;128.20;1766.40;;;;;;4994577;28;20041;-67
2022/01/14 02:01:41;;;;;;;47.55;24.77;;;128.30;1792.00;;;;;;4994198;28;20088;-67
2022/01/14 02:04:07;;;;;;;46.63;25.70;;;128.30;1792.00;;;;;;4994746;28;20053;-66
2022/01/14 02:06:37;;;;;;;44.83;25.50;;;128.30;1792.00;;;;;;4994170;28;20062;-67
2022/01/14 02:09:04;;;;;;;51.65;26.25;;;128.30;1766.40;;;;;;5004259;28;20125;-68
2022/01/14 02:11:30;;;;;;;45.65;25.13;;;128.30;1792.00;;;;;;5015866;28;20474;-68
2022/01/14 02:13:58;;;;;;;46.42;26.42;;;128.20;1792.00;;;;;;5015830;28;20026;-68
2022/01/14 02:16:59;;;;;;;51.13;26.10;;;128.20;1792.00;;;;;;5015861;28;20034;-67
2022/01/14 02:19:28;;;;;;;53.53;27.10;;;128.30;1792.00;;;;;;5015633;28;20062;-66
2022/01/14 02:22:13;;;;;;;48.45;26.80;;;128.20;1766.40;;;;;;5015608;28;20034;-66
2022/01/14 02:27:12;;;;;;;48.80;25.17;;;128.30;1792.00;;;;;;5015330;28;20342;-63
2022/01/14 02:29:38;;;;;;;57.38;27.98;;;128.20;1792.00;;;;;;5015725;28;20048;-69
2022/01/14 02:32:05;;;;;;;52.22;27.02;;;128.20;1792.00;;;;;;5015643;28;20379;-65
2022/01/14 02:34:31;;;;;;;52.50;27.00;;;128.20;1792.00;;;;;;5015492;28;20045;-67
2022/01/14 02:36:57;;;;;;;52.90;26.27;;;128.20;1766.40;;;;;;5015114;28;20026;-66
2022/01/14 02:39:23;;;;;;;49.40;25.90;;;128.20;1740.80;;;;;;5015541;28;20033;-67
2022/01/14 02:41:51;;;;;;;52.60;27.00;;;128.20;1766.40;;;;;;5015201;28;20460;-65
2022/01/14 02:44:24;;;;;;;46.63;25.45;;;128.20;1766.40;;;;;;5015407;28;20033;-72
2022/01/14 02:46:57;;;;;;;44.38;24.00;;;128.30;1740.80;;;;;;5015378;28;20076;-67
2022/01/14 02:49:29;;;;;;;43.38;23.38;;;128.20;1766.40;;;;;;5015419;28;20030;-69
2022/01/14 02:51:56;;;;;;;46.25;23.10;;;128.30;1766.40;;;;;;5014814;28;20054;-69
2022/01/14 02:54:30;;;;;;;40.28;22.63;;;128.20;1740.80;;;;;;5014997;28;20100;-66
2022/01/14 02:57:00;;;;;;;43.42;23.15;;;128.20;1740.80;;;;;;5015034;28;20026;-66
2022/01/14 02:59:28;;;;;;;41.17;22.27;;;128.20;1766.40;;;;;;5015130;28;20034;-67
2022/01/14 03:01:54;;;;;;;37.72;20.98;;;128.20;1740.80;;;;;;5014964;28;20030;-67
2022/01/14 03:04:21;;;;;;;43.40;23.67;;;128.20;1715.20;;;;;;5014947;28;20033;-64
2022/01/14 03:06:48;;;;;;;39.42;22.58;;;128.20;1740.80;;;;;;5014979;28;20046;-66
2022/01/14 03:09:14;;;;;;;42.58;22.90;;;128.20;1740.80;;;;;;5015220;28;20037;-65
2022/01/14 03:11:48;;;;;;;39.83;22.27;;;128.10;1715.20;;;;;;5015120;28;20022;-66
2022/01/14 03:14:23;;;;;;;40.40;21.83;;;128.10;1664.00;;;;;;5014825;28;20022;-65
2022/01/14 03:16:49;;;;;;;;;;;128.00;1740.80;;;;;;5015149;28;20259;-65
2022/01/14 03:19:25;;;;;;;40.97;21.60;;;128.00;1715.20;;;;;;5014565;28;19905;-66
2022/01/14 03:22:04;;;;;;;39.78;21.20;;;103.20;1689.60;;;;;;5014475;28;20087;-67
2022/01/14 03:27:01;;;;;;;36.83;20.50;;;103.10;1664.00;;;;;;5014591;28;20022;-67
2022/01/14 03:29:27;;;;;;;40.28;21.92;;;103.10;1715.20;;;;;;5014904;28;20438;-68
2022/01/14 03:31:53;;;;;;;41.13;22.23;;;103.20;1689.60;;;;;;5014684;28;20033;-68
2022/01/14 03:34:19;;;;;;;45.40;23.45;;;103.10;1689.60;;;;;;5014655;28;20061;-68
2022/01/14 03:36:45;;;;;;;42.88;22.48;;;103.00;1689.60;;;;;;5014091;28;20037;-68
2022/01/14 03:39:11;;;;;;;41.67;23.00;;;103.10;1689.60;;;;;;5014299;28;20049;-67
2022/01/14 03:41:37;;;;;;;43.55;22.25;;;103.00;1689.60;;;;;;5014358;28;20420;-68
2022/01/14 03:44:03;;;;;;;44.08;24.30;;;103.00;1664.00;;;;;;5014076;28;20187;-67
2022/01/14 03:46:29;;;;;;;49.22;25.42;;;102.90;1664.00;;;;;;5014316;28;20049;-68
2022/01/14 03:48:54;;;;;;;44.80;22.67;;;102.80;1715.20;;;;;;5014653;28;20364;-67
2022/01/14 03:51:22;;;;;;;41.58;23.15;;;102.80;1715.20;;;;;;5014232;28;20042;-68
2022/01/14 03:53:48;;;;;;;44.55;23.33;;;102.70;1715.20;;;;;;5014339;28;20025;-68
2022/01/14 03:56:15;;;;;;;46.85;25.08;;;102.70;1715.20;;;;;;5014142;28;20030;-68
2022/01/14 03:58:41;;;;;;;45.75;23.30;;;102.60;1689.60;;;;;;5014024;28;20022;-69
2022/01/14 04:01:07;;;;;;;47.65;24.25;;;102.60;1715.20;;;;;;5013921;28;20029;-68
2022/01/14 04:03:34;;;;;;;45.65;21.95;;;102.60;1689.60;;;;;;5014243;28;20025;-69
2022/01/14 04:05:59;;;;;;;46.60;21.45;;;102.60;1715.20;;;;;;5013313;28;20042;-69
2022/01/14 04:08:25;;;;;;;48.42;21.77;;;102.60;1715.20;;;;;;5013692;28;20022;-68
2022/01/14 04:10:53;;;;;;;44.40;22.10;;;102.60;1715.20;;;;;;5013893;28;20041;-70
2022/01/14 04:13:24;;;;;;;41.65;21.60;;;102.70;1689.60;;;;;;5014015;28;20041;-67
2022/01/14 04:15:50;;;;;;;37.17;20.38;;;102.60;1715.20;;;;;;5014051;28;20080;-61
2022/01/14 04:18:18;;;;;;;37.60;20.52;;;102.70;1740.80;;;;;;5013790;28;20434;-70
2022/01/14 04:20:47;;;;;;;36.40;19.98;;;102.70;1715.20;;;;;;5013790;28;20034;-70
2022/01/14 04:23:15;;;;;;;43.00;20.98;;;102.70;1689.60;;;;;;5013919;28;20037;-62
2022/01/14 04:25:42;;;;;;;42.17;20.35;;;102.70;1689.60;;;;;;5013785;28;20038;-63
2022/01/14 04:28:09;;;;;;;41.15;21.75;;;102.70;1664.00;;;;;;5013773;28;20030;-71
2022/01/14 04:30:35;;;;;;;42.35;21.77;;;102.70;1689.60;;;;;;5013545;28;20033;-69
2022/01/14 04:33:02;;;;;;;44.83;21.83;;;102.60;1689.60;;;;;;5013709;28;20506;-69
2022/01/14 04:35:28;;;;;;;44.78;21.90;;;102.60;1664.00;;;;;;5014128;28;20026;-64
2022/01/14 04:37:54;;;;;;;45.95;23.83;;;102.60;1689.60;;;;;;5013845;28;20025;-69
2022/01/14 04:40:21;;;;;;;40.15;20.52;;;102.60;1689.60;;;;;;5013565;28;20018;-60
2022/01/14 04:42:47;;;;;;;41.65;21.52;;;102.60;1664.00;;;;;;5013625;28;20026;-60
2022/01/14 04:45:28;;;;;;;41.13;20.90;;;102.70;1664.00;;;;;;5013309;28;20038;-64
2022/01/14 04:47:55;;;;;;;46.15;21.13;;;102.60;1664.00;;;;;;5013678;28;20030;-60
2022/01/14 04:50:22;;;;;;;39.05;20.40;;;102.60;1664.00;;;;;;5015789;28;20041;-64
2022/01/14 04:52:49;;;;;;;41.10;21.95;;;102.60;1689.60;;;;;;5017056;28;20034;-66
2022/01/14 04:55:19;;;;;;;40.03;20.55;;;102.60;1664.00;;;;;;5016989;28;20049;-65
2022/01/14 04:57:45;;;;;;;42.72;20.13;;;102.40;1689.60;;;;;;5017379;28;20033;-66
2022/01/14 05:00:15;;;;;;;37.72;19.35;;;102.40;1689.60;;;;;;5017209;28;20033;-68
2022/01/14 05:02:41;;;;;;;38.10;19.55;;;102.40;1664.00;;;;;;5017156;28;20033;-70
2022/01/14 05:05:08;;;;;;;35.78;19.40;;;77.70;1664.00;;;;;;5017366;28;20038;-70
2022/01/14 05:07:35;;;;;;;40.20;20.20;;;77.70;1715.20;;;;;;5016970;28;20033;-68
2022/01/14 05:12:30;;;;;;;33.38;18.23;;;77.70;1638.40;;;;;;5017328;28;20048;-66
2022/01/14 05:14:55;;;;;;;37.55;19.67;;;77.60;1689.60;;;;;;5016759;28;20046;-67
2022/01/14 05:17:21;;;;;;;31.73;18.48;;;77.70;1689.60;;;;;;5016779;28;20033;-66
2022/01/14 05:19:47;;;;;;;35.95;20.02;;;77.60;1638.40;;;;;;5016922;28;20038;-68
2022/01/14 05:22:13;;;;;;;42.85;20.35;;;77.60;1689.60;;;;;;5016598;28;20087;-67
2022/01/14 05:24:39;;;;;;;38.10;19.85;;;77.60;1715.20;;;;;;5016782;28;20033;-67
2022/01/14 05:27:06;;;;;;;37.20;19.50;;;77.60;1664.00;;;;;;5016893;28;20053;-70
2022/01/14 05:29:32;;;;;;;37.17;21.00;;;77.50;1689.60;;;;;;5016684;28;20083;-65
2022/01/14 05:32:05;;;;;;;41.00;21.55;;;77.50;1715.20;;;;;;5017199;28;20105;-64
2022/01/14 05:34:33;;;;;;;35.53;19.33;;;77.40;1689.60;;;;;;5016704;28;20026;-59
2022/01/14 05:37:00;;;;;;;37.78;20.92;;;77.50;1689.60;;;;;;5016429;28;20025;-60
2022/01/14 05:39:27;;;;;;;39.08;21.65;;;77.40;1715.20;;;;;;5016509;28;20097;-59
2022/01/14 05:41:53;;;;;;;40.90;22.67;;;77.50;1715.20;;;;;;5016349;28;20036;-64
2022/01/14 05:44:19;;;;;;;36.67;20.90;;;77.50;1715.20;;;;;;5016339;28;20414;-63
2022/01/14 05:46:46;;;;;;;41.90;21.95;;;77.50;1715.20;;;;;;5016209;28;20087;-59
2022/01/14 05:49:12;;;;;;;55.30;31.17;;;77.50;1740.80;;;;;;5015952;28;20030;-59
2022/01/14 05:51:38;;;;;;;145.77;67.78;;;77.30;1715.20;;;;;;5016134;28;20124;-61
2022/01/14 05:54:04;;;;;;;99.22;50.78;;;77.20;1715.20;;;;;;5016299;28;20475;-60
2022/01/14 05:56:29;;;;;;;102.53;49.28;;;77.30;1766.40;;;;;;5016269;28;20025;-63
2022/01/14 05:58:55;;;;;;;77.85;38.63;;;77.20;1766.40;;;;;;5016455;28;20079;-60
2022/01/14 06:01:21;;;;;;;105.78;53.00;;;77.20;1715.20;;;;;;5015678;28;20366;-62
2022/01/14 06:03:47;;;;;;;90.13;45.53;;;77.20;1740.80;;;;;;5016464;28;20438;-68
2022/01/14 06:06:13;;;;;;;93.72;53.55;;;77.30;1715.20;;;;;;5015966;28;20037;-69
2022/01/14 06:08:39;;;;;;;76.68;42.25;;;77.10;1689.60;;;;;;5016140;28;20547;-63
2022/01/14 06:11:04;;;;;;;69.28;36.28;;;77.10;1689.60;;;;;;5015927;28;20498;-68
2022/01/14 06:13:30;;;;;;;62.67;34.75;;;77.00;1689.60;;;;;;5015777;28;20030;-68
2022/01/14 06:15:56;;;;;;;59.42;30.35;;;76.90;1766.40;;;;;;5016083;28;20037;-63
2022/01/14 06:18:22;;;;;;;57.90;28.58;;;77.00;1740.80;;;;;;5015897;28;20025;-67
2022/01/14 06:20:47;;;;;;;55.03;25.55;;;76.90;1715.20;;;;;;5015750;28;20053;-65
2022/01/14 06:23:13;;;;;;;47.67;25.08;;;76.90;1740.80;;;;;;5015829;28;20026;-68
2022/01/14 06:25:40;;;;;;;47.22;25.25;;;76.80;1766.40;;;;;;5015709;28;20041;-67
2022/01/14 06:28:06;;;;;;;73.32;44.60;;;76.90;1715.20;;;;;;5015727;28;20380;-67
2022/01/14 06:30:32;;;;;;;69.63;41.65;;;52.10;1740.80;;;;;;5015821;28;20053;-66
2022/01/14 06:32:57;;;;;;;72.05;42.08;;;52.10;1766.40;;;;;;5015735;28;20025;-68
2022/01/14 06:35:23;;;;;;;63.80;37.90;;;76.80;1766.40;;;;;;5015637;28;20025;-67
2022/01/14 06:37:50;;;;;;;65.13;35.17;;;52.10;1740.80;;;;;;5015582;28;20375;-60
2022/01/14 06:40:16;;;;;;;61.42;31.48;;;52.10;1766.40;;;;;;5015140;28;20026;-65
2022/01/14 06:42:42;;;;;;;54.63;29.35;;;76.80;1792.00;;;;;;5015337;28;20085;-64
2022/01/14 06:45:09;;;;;;;52.75;26.90;;;52.10;1766.40;;;;;;5015251;28;20034;-59
2022/01/14 06:47:34;;;;;;;44.75;22.52;;;52.10;1792.00;;;;;;5015316;28;20105;-62
2022/01/14 06:50:01;;;;;;;45.40;23.30;;;76.80;1792.00;;;;;;5014889;28;20105;-62
2022/01/14 06:52:27;;;;;;;69.45;30.70;;;52.10;1766.40;;;;;;5015199;28;20057;-62
2022/01/14 06:54:53;;;;;;;58.38;28.90;;;52.00;1766.40;;;;;;5015169;28;20479;-61
2022/01/14 06:57:19;;;;;;;56.65;28.63;;;52.10;1792.00;;;;;;5015015;28;20026;-61
2022/01/14 06:59:44;;;;;;;44.85;24.50;;;52.10;1792.00;;;;;;5014812;28;20029;-60
2022/01/14 07:02:10;;;;;;;50.15;24.92;;;76.80;1792.00;;;;;;5015116;28;20030;-60
2022/01/14 07:04:36;;;;;;;48.67;24.25;;;52.10;1817.60;;;;;;5014972;28;20026;-62
2022/01/14 07:07:03;;;;;;;52.72;23.60;;;76.80;1817.60;;;;;;5015129;28;20380;-61
2022/01/14 07:09:31;;;;;;;46.33;24.10;;;76.90;1817.60;;;;;;5014826;28;20479;-62
2022/01/14 07:11:59;;;;;;;44.05;23.77;;;76.90;1817.60;;;;;;5014139;28;20034;-61
2022/01/14 07:14:26;;;;;;;51.50;25.08;;;76.90;1792.00;;;;;;5014532;28;20378;-62
2022/01/14 07:16:52;;;;;;;53.83;27.98;;;76.90;1817.60;;;;;;5014822;28;20026;-62
2022/01/14 07:19:19;;;;;;;53.67;28.33;;;77.00;1817.60;;;;;;5014945;28;20049;-62
2022/01/14 07:21:45;;;;;;;70.13;38.22;;;77.10;1792.00;;;;;;5014284;28;20034;-61
2022/01/14 07:24:13;;;;;;;70.22;36.28;;;77.10;1792.00;;;;;;5014114;28;20036;-62
2022/01/14 07:26:39;;;;;;;72.80;35.22;;;77.20;1792.00;;;;;;5014446;28;20046;-63
2022/01/14 07:29:05;;;;;;;64.07;33.28;;;77.20;1740.80;;;;;;5014667;28;20116;-61
2022/01/14 07:31:31;;;;;;;64.68;31.42;;;77.20;1792.00;;;;;;5014336;28;20026;-60
2022/01/14 07:33:57;;;;;;;79.43;38.00;;;77.20;1792.00;;;;;;5013971;28;20535;-61
2022/01/14 07:36:23;;;;;;;66.43;34.17;;;77.20;1766.40;;;;;;5014292;28;20030;-64
2022/01/14 07:38:49;;;;;;;81.90;36.83;;;77.10;1792.00;;;;;;5014234;28;20057;-61
2022/01/14 07:41:14;;;;;;;75.28;36.80;;;77.20;1792.00;;;;;;5014247;28;20054;-62
2022/01/14 07:43:45;;;;;;;71.43;36.85;;;77.30;1766.40;;;;;;5014354;28;20030;-63
2022/01/14 07:46:11;;;;;;;67.78;36.00;;;77.30;1817.60;;;;;;5014636;28;20042;-63
2022/01/14 07:48:37;;;;;;;86.65;43.20;;;77.30;1817.60;;;;;;5014291;28;20113;-63
2022/01/14 07:51:03;;;;;;;80.63;41.53;;;77.30;1843.20;;;;;;5013967;28;20048;-62
2022/01/14 07:53:29;;;;;;;66.43;34.90;;;77.40;1817.60;;;;;;5014156;28;20018;-62
2022/01/14 07:55:55;;;;;;;66.70;35.95;;;77.40;1817.60;;;;;;5014248;28;20034;-61
2022/01/14 07:58:21;;;;;;;79.82;36.00;;;77.30;1792.00;;;;;;5014137;28;20026;-61
2022/01/14 08:00:47;;;;;;;67.18;34.25;;;77.30;1817.60;;;;;;5014018;28;20538;-61
2022/01/14 08:03:12;;;;;;;58.97;29.38;;;77.30;1817.60;;;;;;5014704;28;20119;-61
2022/01/14 08:05:38;;;;;;;60.35;30.33;;;77.30;1817.60;;;;;;5014041;28;20037;-61
2022/01/14 08:08:07;;;;;;;52.95;27.08;;;77.40;1817.60;;;;;;5014012;28;20037;-61
2022/01/14 08:10:34;;;;;;;44.85;25.42;;;77.40;1792.00;;;;;;5013681;28;20124;-61
2022/01/14 08:13:00;;;;;;;53.60;26.92;;;77.40;1817.60;;;;;;5013924;28;20022;-62
2022/01/14 08:15:26;;;;;;;49.63;25.70;;;77.40;1843.20;;;;;;5014078;28;20105;-62
2022/01/14 08:17:54;;;;;;;43.15;24.05;;;77.50;1817.60;;;;;;5013897;28;20110;-61
2022/01/14 08:20:20;;;;;;;47.65;24.42;;;77.40;1843.20;;;;;;5014021;28;20376;-62
2022/01/14 08:22:45;;;;;;;44.33;22.85;;;77.40;1843.20;;;;;;5013893;28;20379;-61
2022/01/14 08:25:12;;;;;;;38.72;21.23;;;77.50;1843.20;;;;;;5017759;28;20033;-61
2022/01/14 08:27:38;;;;;;;42.25;22.15;;;77.50;1843.20;;;;;;5018033;28;20038;-61
2022/01/14 08:30:06;;;;;;;43.75;22.45;;;77.60;1868.80;;;;;;5017729;28;20022;-61
2022/01/14 08:32:31;;;;;;;41.10;22.20;;;77.60;1843.20;;;;;;5017659;28;20475;-62
2022/01/14 08:34:57;;;;;;;47.03;23.60;;;77.60;1843.20;;;;;;5017746;28;20025;-61
2022/01/14 08:37:23;;;;;;;42.85;22.75;;;77.60;1868.80;;;;;;5017672;28;20026;-61
2022/01/14 08:39:49;;;;;;;46.00;25.30;;;77.70;1868.80;;;;;;5017590;28;20014;-59
2022/01/14 08:42:14;;;;;;;48.25;25.90;;;77.70;1868.80;;;;;;5017390;28;20029;-60
2022/01/14 08:44:41;;;;;;;53.28;27.02;;;77.70;1868.80;;;;;;5017274;28;20045;-62
2022/01/14 08:47:09;;;;;;;68.38;31.50;;;77.70;1894.40;;;;;;5017369;28;20554;-61
2022/01/14 08:49:40;;;;;;;54.88;29.33;;;77.70;1868.80;;;;;;5032650;28;20459;-61
2022/01/14 08:52:07;;;;;;;78.43;41.53;;;102.50;1894.40;;;;;;5007881;28;20057;-61
2022/01/14 08:54:33;;;;;;;79.03;38.70;;;102.60;1868.80;;;;;;5016982;28;20071;-61
2022/01/14 08:56:59;;;;;;;64.78;33.42;;;102.60;1843.20;;;;;;5016978;28;20030;-61
2022/01/14 08:59:24;;;;;;;68.20;36.40;;;102.60;1868.80;;;;;;5016847;28;20424;-61
2022/01/14 09:01:50;;;;;;;73.75;36.25;;;102.70;1868.80;;;;;;5017261;28;20022;-61
2022/01/14 09:04:16;;;;;;;67.70;36.15;;;102.70;1868.80;;;;;;5017040;28;20034;-61
2022/01/14 09:06:42;;;;;;;62.00;33.85;;;102.80;1843.20;;;;;;5016718;28;20034;-62
2022/01/14 09:09:08;;;;;;;55.28;30.45;;;102.80;1868.80;;;;;;5016925;28;20033;-62
2022/01/14 09:11:34;;;;;;;60.88;35.17;;;102.90;1868.80;;;;;;5016738;28;20072;-61
2022/01/14 09:14:00;;;;;;;87.45;43.42;;;103.00;1868.80;;;;;;5016424;28;20057;-59
2022/01/14 09:16:26;;;;;;;88.97;43.95;;;103.00;1843.20;;;;;;5015815;28;20053;-61
2022/01/14 09:18:51;;;;;;;64.15;32.55;;;103.10;1868.80;;;;;;5016349;28;20018;-61
2022/01/14 09:21:18;;;;;;;58.75;30.73;;;103.10;1868.80;;;;;;5016317;28;20022;-64
2022/01/14 09:23:52;;;;;;;63.13;34.33;;;103.10;1843.20;;;;;;5016582;28;20431;-60
2022/01/14 09:26:19;;;;;;;66.70;35.27;;;103.20;1868.80;;;;;;5016177;28;20439;-62
2022/01/14 09:28:45;;;;;;;59.53;31.50;;;103.20;1868.80;;;;;;5015696;28;20287;-61
2022/01/14 09:31:11;;;;;;;57.13;28.60;;;103.30;1843.20;;;;;;5016261;28;20391;-62
2022/01/14 09:33:38;;;;;;;53.70;27.85;;;128.00;1868.80;;;;;;5016242;28;20018;-61
2022/01/14 09:36:04;;;;;;;45.67;25.15;;;128.00;1843.20;;;;;;5014704;28;20026;-61
2022/01/14 09:38:31;;;;;;;59.72;32.75;;;128.10;1868.80;;;;;;5016018;28;20014;-65
2022/01/14 09:40:58;;;;;;;94.55;49.13;;;128.20;1868.80;;;;;;5016446;28;20048;-63
2022/01/14 09:43:25;;;;;;;188.68;85.10;;;128.20;1868.80;;;;;;5016171;28;20025;-63
2022/01/14 09:45:53;;;;;;;210.13;96.93;;;128.30;1843.20;;;;;;5016191;28;20045;-63
2022/01/14 09:48:20;;;;;;;190.48;95.57;;;128.20;1843.20;;;;;;5016602;28;20026;-64
2022/01/14 09:50:47;;;;;;;130.77;66.78;;;128.20;1843.20;;;;;;5015943;28;20045;-63
2022/01/14 09:53:16;;;;;;;97.40;53.33;;;128.30;1843.20;;;;;;5016120;28;20109;-61
2022/01/14 09:55:43;;;;;;;64.95;36.88;;;128.40;1894.40;;;;;;5016211;28;20021;-63
2022/01/14 09:58:09;;;;;;;57.72;31.85;;;128.50;1894.40;;;;;;5015738;28;20029;-64
2022/01/14 10:00:37;;;;;;;55.22;30.10;;;128.50;1843.20;;;;;;5016004;28;20487;-66
2022/01/14 10:03:25;;;;;;;46.92;25.95;;;128.60;1843.20;;;;;;5016268;28;20059;-66
2022/01/14 10:05:56;;;;;;;41.90;23.40;;;128.60;1843.20;;;;;;5015490;28;20368;-66
2022/01/14 10:08:27;;;;;;;44.47;24.13;;;128.70;1843.20;;;;;;5015726;28;20041;-62
2022/01/14 10:10:59;;;;;;;38.47;21.15;;;128.80;1843.20;;;;;;5015642;28;20030;-61
2022/01/14 10:13:33;;;;;;;37.00;20.25;;;128.80;1817.60;;;;;;5015509;28;20076;-61
2022/01/14 10:16:05;;;;;;;35.05;20.20;;;128.90;1817.60;;;;;;5015710;28;20063;-60
2022/01/14 10:18:33;;;;;;;37.22;20.63;;;128.90;1843.20;;;;;;5015789;28;20105;-60
2022/01/14 10:21:01;;;;;;;33.20;18.48;;;153.60;1817.60;;;;;;5015032;28;20030;-61
2022/01/14 10:23:47;;;;;;;32.38;18.08;;;153.60;1817.60;;;;;;5015442;28;20018;-61
2022/01/14 10:26:14;;;;;;;35.67;18.75;;;153.60;1817.60;;;;;;5015647;28;20141;-61
2022/01/14 10:28:44;;;;;;;44.42;23.58;;;153.70;1792.00;;;;;;5015322;28;20033;-60
2022/01/14 10:31:10;;;;;;;106.32;48.25;;;153.70;1792.00;;;;;;5015132;28;20025;-62
2022/01/14 10:33:36;;;;;;;137.77;65.47;;;153.80;1792.00;;;;;;5015548;28;20033;-61
2022/01/14 10:36:03;;;;;;;117.10;54.30;;;153.70;1817.60;;;;;;5014905;28;20029;-61
2022/01/14 10:38:38;;;;;;;136.23;66.00;;;153.80;1792.00;;;;;;5015254;28;20014;-61
2022/01/14 10:41:08;;;;;;;92.25;46.42;;;153.90;1843.20;;;;;;5015243;28;20029;-68
2022/01/14 10:43:36;;;;;;;57.03;30.67;;;153.90;1817.60;;;;;;5014983;28;20030;-61
2022/01/14 10:46:07;;;;;;;52.53;28.77;;;154.00;1843.20;;;;;;5015085;28;20061;-61
2022/01/14 10:48:39;;;;;;;87.78;44.20;;;154.10;1868.80;;;;;;5015073;28;20080;-61
2022/01/14 10:51:10;;;;;;;86.43;49.03;;;154.10;1843.20;;;;;;5014421;28;20056;-60
2022/01/14 10:53:48;;;;;;;71.57;39.83;;;154.20;1817.60;;;;;;5015104;28;20037;-60
2022/01/14 10:56:18;;;;;;;72.43;37.45;;;154.20;1817.60;;;;;;5014866;28;20407;-60
2022/01/14 10:58:50;;;;;;;64.60;35.75;;;154.30;1817.60;;;;;;5014642;28;20026;-60
2022/01/14 11:01:21;;;;;;;104.72;51.47;;;154.20;1817.60;;;;;;5015150;28;20076;-62
2022/01/14 11:04:00;;;;;;;112.97;56.58;;;154.30;1817.60;;;;;;5015045;28;20026;-61
2022/01/14 11:06:34;;;;;;;74.05;39.17;;;154.40;1817.60;;;;;;5014643;28;20034;-61
2022/01/14 11:09:04;;;;;;;47.10;25.10;;;179.20;1817.60;;;;;;5014591;28;20022;-61
2022/01/14 11:11:38;;;;;;;40.22;21.25;;;154.50;1843.20;;;;;;5011880;28;20038;-59
2022/01/14 11:14:05;;;;;;;52.65;27.20;;;179.20;1817.60;;;;;;5012884;28;20034;-60
2022/01/14 11:16:32;;;;;;;96.50;44.97;;;179.20;1843.20;;;;;;5014561;28;20030;-61
2022/01/14 11:19:00;;;;;;;123.07;60.00;;;179.30;1843.20;;;;;;5013521;28;20042;-61
2022/01/14 11:24:25;;;;;;;87.85;41.50;;;179.30;1843.20;;;;;;5014725;28;20090;-65
2022/01/14 11:26:59;;;;;;;96.85;48.75;;;179.40;1843.20;;;;;;5014035;28;20041;-66
2022/01/14 11:29:32;;;;;;;70.72;37.67;;;179.50;1843.20;;;;;;5014284;28;20022;-65
2022/01/14 11:32:02;;;;;;;40.38;23.02;;;179.50;1817.60;;;;;;5014249;28;20484;-67
2022/01/14 11:34:42;;;;;;;53.50;26.02;;;179.60;1868.80;;;;;;5013110;28;20034;-64
2022/01/14 11:37:17;;;;;;;64.70;34.92;;;179.60;1817.60;;;;;;5014191;28;20029;-65
2022/01/14 11:40:04;;;;;;;70.50;40.38;;;179.70;1843.20;;;;;;5014377;28;20024;-66
2022/01/14 11:42:41;;;;;;;50.20;28.48;;;179.70;1843.20;;;;;;5014166;28;20434;-62
2022/01/14 11:45:08;;;;;;;43.55;24.23;;;179.80;1817.60;;;;;;5014280;28;20042;-63
2022/01/14 11:47:39;;;;;;;51.85;30.10;;;179.80;1843.20;;;;;;5014533;28;20444;-63
2022/01/14 11:50:26;;;;;;;49.42;29.30;;;179.90;1817.60;;;;;;5014180;28;20026;-63
2022/01/14 11:52:52;;;;;;;42.28;24.83;;;179.90;1843.20;;;;;;4972969;28;20106;-63
2022/01/14 11:55:21;;;;;;;43.90;27.27;;;180.00;1817.60;;;;;;4972686;28;20042;-61
2022/01/14 11:57:54;;;;;;;41.17;22.70;;;180.10;1817.60;;;;;;4971907;28;20085;-63
2022/01/14 12:00:33;;;;;;;39.70;23.52;;;180.10;1817.60;;;;;;4972415;28;20428;-62
2022/01/14 12:03:11;;;;;;;32.47;19.75;;;180.10;1792.00;;;;;;4972071;28;20023;-63
2022/01/14 12:05:38;;;;;;;55.15;28.65;;;180.10;1817.60;;;;;;4972081;28;20037;-61
2022/01/14 12:08:04;;;;;;;126.80;61.30;;;204.80;1817.60;;;;;;4971933;28;20027;-63
2022/01/14 12:10:50;;;;;;;92.07;44.85;;;204.80;1817.60;;;;;;4971860;28;20532;-63
2022/01/14 12:13:16;;;;;;;101.97;50.22;;;204.90;1792.00;;;;;;4972425;28;20026;-67
2022/01/14 12:15:59;;;;;;;65.30;35.53;;;204.90;1817.60;;;;;;4972750;28;20041;-64
2022/01/14 12:19:04;;;;;;;47.10;28.58;;;205.00;1817.60;;;;;;4972895;28;20053;-63
2022/01/14 12:21:44;;;;;;;59.67;35.08;;;205.10;1817.60;;;;;;4933961;29;20066;-64
2022/01/14 12:24:31;;;;;;;101.05;37.08;;;205.10;1792.00;;;;;;4934213;29;20072;-64
2022/01/14 12:27:03;;;;;;;79.32;27.75;;;205.10;1817.60;;;;;;4934384;29;20123;-68
2022/01/14 12:29:34;;;;;;;86.70;25.52;;;205.20;1792.00;;;;;;4934711;29;20135;-62
2022/01/14 12:32:10;;;;;;;62.85;23.05;;;205.20;1817.60;;;;;;4934684;29;20175;-62